createdAt,value
2023-05-24T00:00:53.127Z,4.64
2023-05-24T00:01:44.781Z,4.87
2023-05-24T00:02:37.823Z,4.87
2023-05-24T00:03:34.961Z,4.79
2023-05-24T00:04:30.125Z,4.59
2023-05-24T00:05:21.847Z,4.61
2023-05-24T00:06:13.325Z,5.16
2023-05-24T00:07:04.936Z,5.20
2023-05-24T00:07:59.782Z,4.74
2023-05-24T00:09:02.094Z,4.68
2023-05-24T00:09:53.618Z,4.69
2023-05-24T00:10:48.408Z,5.09
2023-05-24T00:11:42.770Z,5.00
2023-05-24T00:12:36.434Z,4.68
2023-05-24T00:13:28.984Z,4.86
2023-05-24T00:14:20.761Z,5.02
2023-05-24T00:15:14.286Z,4.80
2023-05-24T00:16:08.884Z,4.34
2023-05-24T00:17:00.411Z,4.21
2023-05-24T00:17:52.114Z,4.77
2023-05-24T00:18:47.172Z,4.69
2023-05-24T00:19:40.722Z,4.88
2023-05-24T00:20:32.245Z,4.45
2023-05-24T00:21:23.798Z,4.69
2023-05-24T00:22:15.273Z,4.48
2023-05-24T00:23:06.900Z,4.46
2023-05-24T00:23:58.550Z,4.47
2023-05-24T00:24:50.220Z,4.24
2023-05-24T00:25:41.827Z,4.39
2023-05-24T00:26:33.512Z,4.62
2023-05-24T00:27:25.676Z,4.58
2023-05-24T00:28:18.195Z,4.57
2023-05-24T00:29:10.904Z,4.95
2023-05-24T00:30:05.380Z,5.26
2023-05-24T00:30:58.028Z,5.30
2023-05-24T00:31:50.716Z,5.38
2023-05-24T00:32:42.422Z,4.94
2023-05-24T00:33:41.579Z,5.42
2023-05-24T00:34:33.096Z,5.04
2023-05-24T00:35:24.839Z,4.85
2023-05-24T00:36:18.336Z,4.77
2023-05-24T00:37:12.929Z,4.91
2023-05-24T00:38:04.525Z,5.20
2023-05-24T00:38:56.243Z,5.58
2023-05-24T00:39:47.735Z,5.55
2023-05-24T00:40:39.464Z,5.06
2023-05-24T00:41:31.030Z,4.81
2023-05-24T00:42:23.816Z,5.01
2023-05-24T00:43:15.558Z,5.29
2023-05-24T00:44:07.299Z,4.91
2023-05-24T00:44:58.968Z,4.85
2023-05-24T00:46:13.466Z,4.49
2023-05-24T00:47:05.435Z,5.07
2023-05-24T00:47:59.758Z,4.87
2023-05-24T00:48:51.870Z,4.95
2023-05-24T00:49:43.546Z,5.34
2023-05-24T00:50:36.850Z,5.43
2023-05-24T00:51:28.920Z,5.16
2023-05-24T00:52:21.606Z,5.31
2023-05-24T00:53:14.125Z,5.13
2023-05-24T00:54:06.977Z,5.32
2023-05-24T00:54:58.848Z,5.43
2023-05-24T00:55:50.448Z,5.32
2023-05-24T00:56:45.065Z,5.41
2023-05-24T00:57:39.481Z,5.33
2023-05-24T00:58:32.827Z,5.01
2023-05-24T00:59:26.863Z,5.12
2023-05-24T01:00:18.650Z,5.57
2023-05-24T01:01:10.540Z,5.32
2023-05-24T01:02:02.317Z,5.43
2023-05-24T01:02:55.086Z,5.84
2023-05-24T01:03:46.930Z,5.66
2023-05-24T01:04:41.285Z,5.86
2023-05-24T01:05:33.254Z,5.58
2023-05-24T01:06:27.289Z,5.63
2023-05-24T01:07:27.776Z,5.75
2023-05-24T01:08:42.697Z,5.54
2023-05-24T01:10:05.218Z,5.93
2023-05-24T01:11:14.568Z,5.47
2023-05-24T01:12:25.873Z,5.50
2023-05-24T01:13:39.249Z,5.59
2023-05-24T01:14:49.390Z,5.27
2023-05-24T01:16:05.320Z,5.72
2023-05-24T01:17:13.325Z,5.43
2023-05-24T01:18:33.084Z,5.49
2023-05-24T01:19:43.387Z,5.93
2023-05-24T01:20:40.148Z,5.29
2023-05-24T01:22:01.757Z,5.40
2023-05-24T01:23:13.901Z,5.08
2023-05-24T01:24:30.589Z,4.96
2023-05-24T01:25:42.664Z,4.74
2023-05-24T01:26:47.059Z,5.11
2023-05-24T01:27:39.047Z,4.85
2023-05-24T01:28:34.530Z,4.87
2023-05-24T01:29:28.818Z,5.24
2023-05-24T01:30:23.554Z,4.87
2023-05-24T01:31:17.740Z,5.15
2023-05-24T01:32:10.010Z,5.24
2023-05-24T01:33:01.741Z,5.07
2023-05-24T01:33:55.751Z,4.73
2023-05-24T01:34:50.357Z,4.95
2023-05-24T01:35:42.628Z,5.06
2023-05-24T01:36:36.556Z,5.30
2023-05-24T01:37:28.028Z,5.37
2023-05-24T01:38:19.515Z,5.16
2023-05-24T01:39:12.538Z,5.66
2023-05-24T01:40:06.501Z,5.82
2023-05-24T01:41:05.841Z,5.37
2023-05-24T01:42:07.459Z,5.43
2023-05-24T01:43:42.312Z,6.00
2023-05-24T01:44:57.865Z,5.92
2023-05-24T01:46:20.793Z,5.85
2023-05-24T01:47:35.619Z,5.40
2023-05-24T01:49:00.128Z,5.33
2023-05-24T01:50:01.762Z,5.86
2023-05-24T01:51:00.596Z,5.97
2023-05-24T01:52:19.836Z,5.43
2023-05-24T01:53:17.816Z,6.01
2023-05-24T01:54:13.544Z,5.60
2023-05-24T01:55:09.392Z,5.56
2023-05-24T01:56:06.053Z,5.46
2023-05-24T01:57:00.658Z,5.89
2023-05-24T01:57:59.039Z,5.91
2023-05-24T01:58:53.223Z,5.76
2023-05-24T01:59:46.155Z,5.78
2023-05-24T02:00:40.770Z,5.70
2023-05-24T02:01:35.836Z,5.42
2023-05-24T02:02:28.266Z,5.82
2023-05-24T02:03:20.488Z,5.47
2023-05-24T02:04:13.321Z,5.95
2023-05-24T02:05:05.727Z,5.57
2023-05-24T02:05:59.404Z,5.44
2023-05-24T02:06:51.137Z,5.61
2023-05-24T02:07:42.864Z,5.63
2023-05-24T02:08:34.413Z,5.56
2023-05-24T02:09:26.010Z,5.00
2023-05-24T02:10:17.656Z,5.51
2023-05-24T02:11:09.816Z,5.30
2023-05-24T02:12:02.400Z,5.40
2023-05-24T02:12:56.286Z,5.32
2023-05-24T02:13:49.914Z,5.36
2023-05-24T02:14:42.965Z,4.67
2023-05-24T02:15:36.760Z,5.24
2023-05-24T02:16:30.815Z,5.06
2023-05-24T02:17:25.973Z,5.86
2023-05-24T02:18:18.588Z,5.92
2023-05-24T02:19:10.099Z,5.85
2023-05-24T02:20:02.148Z,5.56
2023-05-24T02:20:54.263Z,5.63
2023-05-24T02:21:47.441Z,5.97
2023-05-24T02:22:39.726Z,6.19
2023-05-24T02:23:31.597Z,6.36
2023-05-24T02:24:24.611Z,6.00
2023-05-24T02:25:17.582Z,6.55
2023-05-24T02:26:11.535Z,6.10
2023-05-24T02:27:03.844Z,6.14
2023-05-24T02:27:58.032Z,5.98
2023-05-24T02:28:49.632Z,5.35
2023-05-24T02:29:41.934Z,5.49
2023-05-24T02:30:33.511Z,5.32
2023-05-24T02:31:28.715Z,5.26
2023-05-24T02:32:20.545Z,5.17
2023-05-24T02:33:12.453Z,4.94
2023-05-24T02:34:04.996Z,5.15
2023-05-24T02:34:59.299Z,5.42
2023-05-24T02:35:51.410Z,5.76
2023-05-24T02:36:44.955Z,5.11
2023-05-24T02:37:36.661Z,4.90
2023-05-24T02:38:28.247Z,5.11
2023-05-24T02:39:20.588Z,4.88
2023-05-24T02:40:14.782Z,4.94
2023-05-24T02:41:06.223Z,4.93
2023-05-24T02:41:58.109Z,4.65
2023-05-24T02:42:49.934Z,4.52
2023-05-24T02:43:43.038Z,5.50
2023-05-24T02:44:36.501Z,4.87
2023-05-24T02:45:28.354Z,4.79
2023-05-24T02:46:19.835Z,4.62
2023-05-24T02:47:11.628Z,4.94
2023-05-24T02:48:03.772Z,5.07
2023-05-24T02:48:55.742Z,4.89
2023-05-24T02:49:47.249Z,5.08
2023-05-24T02:50:38.794Z,4.95
2023-05-24T02:51:30.443Z,5.03
2023-05-24T02:52:23.137Z,5.09
2023-05-24T02:53:14.769Z,5.57
2023-05-24T02:54:06.553Z,5.35
2023-05-24T02:54:58.106Z,5.28
2023-05-24T02:55:51.161Z,5.22
2023-05-24T02:56:42.726Z,4.95
2023-05-24T02:57:37.993Z,4.97
2023-05-24T02:58:31.791Z,5.09
2023-05-24T02:59:24.337Z,4.75
2023-05-24T03:00:16.409Z,5.14
2023-05-24T03:01:08.847Z,5.81
2023-05-24T03:02:00.547Z,5.83
2023-05-24T03:02:52.446Z,5.34
2023-05-24T03:03:44.057Z,4.66
2023-05-24T03:04:35.697Z,5.19
2023-05-24T03:05:27.823Z,4.87
2023-05-24T03:06:19.543Z,4.77
2023-05-24T03:07:11.182Z,5.30
2023-05-24T03:08:02.803Z,5.04
2023-05-24T03:08:54.404Z,5.33
2023-05-24T03:09:46.238Z,5.00
2023-05-24T03:10:37.766Z,5.07
2023-05-24T03:11:31.266Z,5.19
2023-05-24T03:12:22.710Z,5.17
2023-05-24T03:13:14.250Z,4.83
2023-05-24T03:14:10.870Z,4.91
2023-05-24T03:15:05.607Z,5.34
2023-05-24T03:15:57.420Z,5.00
2023-05-24T03:16:50.781Z,4.80
2023-05-24T03:17:44.992Z,4.97
2023-05-24T03:18:41.552Z,4.47
2023-05-24T03:19:33.085Z,5.00
2023-05-24T03:20:24.815Z,4.93
2023-05-24T03:21:20.196Z,5.25
2023-05-24T03:22:11.995Z,4.96
2023-05-24T03:23:03.458Z,4.93
2023-05-24T03:23:56.663Z,4.95
2023-05-24T03:24:48.838Z,5.12
2023-05-24T03:25:41.326Z,5.12
2023-05-24T03:26:32.876Z,4.83
2023-05-24T03:27:24.448Z,4.99
2023-05-24T03:28:15.962Z,5.12
2023-05-24T03:29:08.746Z,4.75
2023-05-24T03:30:06.699Z,4.82
2023-05-24T03:31:04.677Z,4.24
2023-05-24T03:31:56.703Z,4.69
2023-05-24T03:32:48.697Z,4.99
2023-05-24T03:33:43.170Z,4.92
2023-05-24T03:34:34.802Z,4.67
2023-05-24T03:35:28.516Z,5.06
2023-05-24T03:36:21.422Z,5.23
2023-05-24T03:37:13.343Z,4.97
2023-05-24T03:38:06.595Z,4.65
2023-05-24T03:39:00.740Z,4.77
2023-05-24T03:39:54.650Z,4.62
2023-05-24T03:41:06.386Z,5.01
2023-05-24T03:41:58.926Z,5.25
2023-05-24T03:42:52.611Z,5.22
2023-05-24T03:43:54.672Z,4.69
2023-05-24T03:44:46.982Z,4.47
2023-05-24T03:45:40.002Z,4.81
2023-05-24T03:46:31.874Z,4.82
2023-05-24T03:47:23.788Z,4.90
2023-05-24T03:48:15.530Z,4.83
2023-05-24T03:49:07.925Z,4.79
2023-05-24T03:50:01.004Z,5.12
2023-05-24T03:50:53.418Z,5.00
2023-05-24T03:51:47.067Z,5.09
2023-05-24T03:52:38.589Z,4.88
2023-05-24T03:53:32.083Z,4.61
2023-05-24T03:54:24.796Z,4.63
2023-05-24T03:55:16.262Z,4.93
2023-05-24T03:56:07.787Z,5.16
2023-05-24T03:57:04.069Z,4.67
2023-05-24T03:57:55.712Z,4.88
2023-05-24T03:58:47.460Z,5.25
2023-05-24T03:59:41.091Z,5.16
2023-05-24T04:00:32.957Z,5.70
2023-05-24T04:01:33.392Z,5.78
2023-05-24T04:02:26.909Z,4.93
2023-05-24T04:03:20.223Z,4.81
2023-05-24T04:04:12.408Z,5.12
2023-05-24T04:05:08.221Z,5.22
2023-05-24T04:06:02.720Z,4.76
2023-05-24T04:06:56.220Z,4.80
2023-05-24T04:07:49.558Z,5.11
2023-05-24T04:08:41.274Z,4.86
2023-05-24T04:09:34.119Z,5.51
2023-05-24T04:10:25.724Z,5.87
2023-05-24T04:11:17.298Z,5.91
2023-05-24T04:12:10.114Z,5.93
2023-05-24T04:13:02.109Z,5.49
2023-05-24T04:13:55.948Z,6.08
2023-05-24T04:14:47.417Z,6.39
2023-05-24T04:15:38.955Z,6.51
2023-05-24T04:16:34.467Z,6.31
2023-05-24T04:17:34.937Z,6.32
2023-05-24T04:18:26.802Z,5.88
2023-05-24T04:19:19.682Z,6.64
2023-05-24T04:20:12.683Z,6.15
2023-05-24T04:21:04.329Z,6.25
2023-05-24T04:21:55.797Z,5.55
2023-05-24T04:22:50.021Z,5.71
2023-05-24T04:23:41.603Z,5.67
2023-05-24T04:24:33.103Z,5.74
2023-05-24T04:25:27.901Z,5.52
2023-05-24T04:26:21.152Z,5.08
2023-05-24T04:27:13.286Z,5.40
2023-05-24T04:28:06.104Z,5.75
2023-05-24T04:29:00.531Z,5.23
2023-05-24T04:29:53.680Z,5.26
2023-05-24T04:30:46.312Z,4.73
2023-05-24T04:31:38.047Z,5.16
2023-05-24T04:32:30.428Z,5.71
2023-05-24T04:33:25.025Z,5.46
2023-05-24T04:34:22.101Z,5.14
2023-05-24T04:35:15.535Z,5.18
2023-05-24T04:36:08.335Z,4.72
2023-05-24T04:37:00.381Z,5.00
2023-05-24T04:37:52.562Z,5.29
2023-05-24T04:38:46.169Z,5.38
2023-05-24T04:39:37.709Z,5.45
2023-05-24T04:40:29.358Z,6.03
2023-05-24T04:41:22.383Z,6.96
2023-05-24T04:42:18.489Z,8.90
2023-05-24T04:43:10.764Z,9.46
2023-05-24T04:44:02.311Z,9.45
2023-05-24T04:44:53.886Z,8.78
2023-05-24T04:45:46.774Z,8.48
2023-05-24T04:46:38.407Z,8.81
2023-05-24T04:47:30.017Z,7.65
2023-05-24T04:48:24.203Z,7.85
2023-05-24T04:49:15.875Z,6.59
2023-05-24T04:50:08.188Z,6.08
2023-05-24T04:51:00.445Z,5.37
2023-05-24T04:51:53.435Z,5.58
2023-05-24T04:52:47.099Z,5.59
2023-05-24T04:53:38.713Z,6.03
2023-05-24T04:54:30.597Z,5.28
2023-05-24T04:55:22.153Z,5.69
2023-05-24T04:56:14.992Z,5.38
2023-05-24T04:57:06.652Z,5.33
2023-05-24T04:57:58.505Z,5.24
2023-05-24T04:58:49.929Z,5.35
2023-05-24T04:59:41.454Z,5.69
2023-05-24T05:00:33.043Z,5.75
2023-05-24T05:01:28.731Z,5.36
2023-05-24T05:02:22.878Z,5.31
2023-05-24T05:03:14.672Z,5.58
2023-05-24T05:04:07.347Z,5.93
2023-05-24T05:04:59.141Z,5.34
2023-05-24T05:05:50.657Z,5.69
2023-05-24T05:06:44.653Z,5.73
2023-05-24T05:07:36.930Z,5.72
2023-05-24T05:08:28.449Z,6.39
2023-05-24T05:09:20.177Z,6.19
2023-05-24T05:10:11.610Z,6.13
2023-05-24T05:11:05.310Z,6.00
2023-05-24T05:11:57.171Z,6.55
2023-05-24T05:12:48.833Z,6.04
2023-05-24T05:13:40.591Z,6.27
2023-05-24T05:14:32.010Z,6.10
2023-05-24T05:15:24.386Z,6.34
2023-05-24T05:16:16.131Z,6.19
2023-05-24T05:17:07.747Z,5.85
2023-05-24T05:17:59.483Z,6.26
2023-05-24T05:18:51.194Z,5.88
2023-05-24T05:19:42.735Z,5.72
2023-05-24T05:20:34.349Z,5.61
2023-05-24T05:21:26.085Z,5.60
2023-05-24T05:22:19.717Z,5.25
2023-05-24T05:23:11.421Z,5.95
2023-05-24T05:24:06.512Z,6.08
2023-05-24T05:24:57.999Z,6.12
2023-05-24T05:25:49.577Z,5.48
2023-05-24T05:26:41.769Z,5.96
2023-05-24T05:27:34.267Z,5.66
2023-05-24T05:28:27.098Z,5.53
2023-05-24T05:29:21.744Z,6.08
2023-05-24T05:30:15.500Z,5.84
2023-05-24T05:31:07.271Z,5.68
2023-05-24T05:31:59.086Z,5.96
2023-05-24T05:32:50.819Z,5.74
2023-05-24T05:33:42.455Z,6.10
2023-05-24T05:34:34.063Z,6.10
2023-05-24T05:35:25.829Z,5.27
2023-05-24T05:36:19.756Z,5.81
2023-05-24T05:37:11.631Z,5.73
2023-05-24T05:38:03.395Z,6.20
2023-05-24T05:38:57.344Z,7.32
2023-05-24T05:39:48.771Z,6.61
2023-05-24T05:40:40.709Z,6.52
2023-05-24T05:41:32.335Z,6.62
2023-05-24T05:42:23.806Z,7.76
2023-05-24T05:43:15.409Z,7.75
2023-05-24T05:44:09.012Z,7.96
2023-05-24T05:45:00.633Z,7.65
2023-05-24T05:45:57.561Z,7.95
2023-05-24T05:46:49.085Z,7.88
2023-05-24T05:47:41.118Z,7.81
2023-05-24T05:48:32.620Z,7.52
2023-05-24T05:49:24.251Z,7.61
2023-05-24T05:50:15.988Z,8.15
2023-05-24T05:51:07.571Z,8.05
2023-05-24T05:52:01.152Z,7.49
2023-05-24T05:52:56.570Z,8.29
2023-05-24T05:53:48.083Z,8.25
2023-05-24T05:54:39.644Z,8.93
2023-05-24T05:55:31.370Z,9.52
2023-05-24T05:56:22.973Z,9.05
2023-05-24T05:57:16.268Z,8.11
2023-05-24T05:58:07.937Z,8.42
2023-05-24T05:58:59.318Z,9.31
2023-05-24T05:59:51.051Z,9.11
2023-05-24T06:00:42.787Z,9.01
2023-05-24T06:01:37.083Z,8.98
2023-05-24T06:02:28.704Z,9.16
2023-05-24T06:03:22.713Z,8.42
2023-05-24T06:04:15.959Z,7.93
2023-05-24T06:05:08.058Z,8.32
2023-05-24T06:05:59.593Z,8.66
2023-05-24T06:06:52.116Z,8.25
2023-05-24T06:07:47.002Z,8.07
2023-05-24T06:08:40.709Z,7.28
2023-05-24T06:09:32.240Z,7.64
2023-05-24T06:10:23.739Z,7.54
2023-05-24T06:11:18.299Z,7.52
2023-05-24T06:12:09.981Z,7.84
2023-05-24T06:13:02.917Z,8.47
2023-05-24T06:13:54.468Z,7.52
2023-05-24T06:14:48.340Z,7.42
2023-05-24T06:15:40.546Z,7.57
2023-05-24T06:16:32.553Z,7.57
2023-05-24T06:17:24.553Z,7.13
2023-05-24T06:18:16.036Z,7.17
2023-05-24T06:19:08.021Z,8.28
2023-05-24T06:20:07.324Z,7.89
2023-05-24T06:21:01.500Z,7.30
2023-05-24T06:21:53.460Z,7.14
2023-05-24T06:22:45.650Z,8.10
2023-05-24T06:23:37.832Z,8.04
2023-05-24T06:24:29.890Z,8.17
2023-05-24T06:25:24.158Z,7.42
2023-05-24T06:26:15.679Z,7.72
2023-05-24T06:27:07.233Z,7.60
2023-05-24T06:27:58.719Z,7.50
2023-05-24T06:28:51.438Z,7.94
2023-05-24T06:29:43.001Z,7.93
2023-05-24T06:30:34.582Z,7.55
2023-05-24T06:31:26.338Z,7.97
2023-05-24T06:32:17.815Z,7.95
2023-05-24T06:33:12.014Z,7.53
2023-05-24T06:34:04.826Z,7.67
2023-05-24T06:34:56.500Z,7.13
2023-05-24T06:35:48.643Z,7.24
2023-05-24T06:36:43.246Z,7.94
2023-05-24T06:37:35.158Z,7.94
2023-05-24T06:38:28.981Z,7.96
2023-05-24T06:39:25.331Z,7.84
2023-05-24T06:40:16.812Z,8.22
2023-05-24T06:41:08.775Z,8.43
2023-05-24T06:42:00.271Z,8.00
2023-05-24T06:42:52.993Z,8.51
2023-05-24T06:43:46.079Z,8.79
2023-05-24T06:44:37.578Z,8.48
2023-05-24T06:45:29.248Z,7.63
2023-05-24T06:46:20.804Z,7.38
2023-05-24T06:47:12.592Z,7.69
2023-05-24T06:48:04.631Z,7.36
2023-05-24T06:48:56.462Z,7.51
2023-05-24T06:49:53.636Z,7.95
2023-05-24T06:50:45.705Z,7.94
2023-05-24T06:51:38.130Z,7.86
2023-05-24T06:52:29.682Z,7.12
2023-05-24T06:53:21.598Z,7.33
2023-05-24T06:54:15.261Z,7.55
2023-05-24T06:55:06.939Z,7.81
2023-05-24T06:55:59.402Z,7.48
2023-05-24T06:56:51.640Z,7.52
2023-05-24T06:57:43.329Z,7.29
2023-05-24T06:58:36.510Z,7.07
2023-05-24T06:59:28.339Z,7.46
2023-05-24T07:00:20.377Z,7.55
2023-05-24T07:01:11.970Z,7.68
2023-05-24T07:02:04.537Z,7.21
2023-05-24T07:02:56.788Z,7.20
2023-05-24T07:03:48.494Z,7.81
2023-05-24T07:04:43.347Z,7.86
2023-05-24T07:05:35.517Z,7.90
2023-05-24T07:06:27.433Z,7.47
2023-05-24T07:07:22.589Z,7.62
2023-05-24T07:08:14.113Z,7.51
2023-05-24T07:09:10.288Z,7.12
2023-05-24T07:10:01.874Z,6.96
2023-05-24T07:10:54.814Z,8.08
2023-05-24T07:11:46.364Z,8.04
2023-05-24T07:12:38.275Z,7.63
2023-05-24T07:13:29.766Z,7.41
2023-05-24T07:14:23.083Z,6.44
2023-05-24T07:15:14.909Z,7.12
2023-05-24T07:16:06.711Z,6.92
2023-05-24T07:17:00.981Z,6.68
2023-05-24T07:17:53.367Z,7.83
2023-05-24T07:18:45.218Z,7.63
2023-05-24T07:19:37.228Z,7.17
2023-05-24T07:20:29.073Z,6.89
2023-05-24T07:21:21.357Z,7.37
2023-05-24T07:22:15.211Z,7.37
2023-05-24T07:23:07.309Z,7.84
2023-05-24T07:23:58.863Z,7.86
2023-05-24T07:24:53.136Z,7.41
2023-05-24T07:25:44.627Z,6.90
2023-05-24T07:26:36.860Z,7.63
2023-05-24T07:27:28.302Z,7.19
2023-05-24T07:28:20.311Z,6.87
2023-05-24T07:29:11.920Z,6.97
2023-05-24T07:30:07.788Z,6.99
2023-05-24T07:31:04.647Z,7.25
2023-05-24T07:31:56.693Z,7.42
2023-05-24T07:32:48.411Z,7.59
2023-05-24T07:33:40.878Z,7.75
2023-05-24T07:34:32.321Z,7.80
2023-05-24T07:35:23.948Z,6.88
2023-05-24T07:36:16.451Z,7.04
2023-05-24T07:37:07.972Z,7.29
2023-05-24T07:38:00.921Z,7.22
2023-05-24T07:38:53.376Z,7.09
2023-05-24T07:39:47.086Z,6.91
2023-05-24T07:40:39.664Z,7.02
2023-05-24T07:41:33.206Z,7.20
2023-05-24T07:42:24.899Z,7.31
2023-05-24T07:43:16.450Z,7.42
2023-05-24T07:44:08.325Z,6.72
2023-05-24T07:44:59.765Z,7.11
2023-05-24T07:45:56.399Z,7.11
2023-05-24T07:46:48.027Z,7.31
2023-05-24T07:47:39.691Z,7.15
2023-05-24T07:48:31.664Z,7.59
2023-05-24T07:49:23.707Z,7.53
2023-05-24T07:50:15.164Z,6.78
2023-05-24T07:51:06.889Z,6.30
2023-05-24T07:51:59.579Z,6.41
2023-05-24T07:52:51.611Z,6.14
2023-05-24T07:53:43.094Z,6.78
2023-05-24T07:54:34.652Z,6.85
2023-05-24T07:55:27.201Z,6.37
2023-05-24T07:56:21.566Z,6.14
2023-05-24T07:57:13.030Z,6.23
2023-05-24T07:58:04.491Z,5.89
2023-05-24T07:59:03.306Z,5.97
2023-05-24T07:59:56.287Z,6.45
2023-05-24T08:00:47.990Z,6.90
2023-05-24T08:01:39.570Z,6.93
2023-05-24T08:02:31.284Z,6.79
2023-05-24T08:03:25.109Z,6.81
2023-05-24T08:04:19.008Z,7.07
2023-05-24T08:05:13.719Z,6.52
2023-05-24T08:06:06.295Z,6.07
2023-05-24T08:06:58.330Z,6.10
2023-05-24T08:07:51.427Z,6.80
2023-05-24T08:08:42.893Z,6.54
2023-05-24T08:09:37.554Z,6.10
2023-05-24T08:10:32.289Z,5.87
2023-05-24T08:11:25.223Z,6.21
2023-05-24T08:12:17.322Z,5.84
2023-05-24T08:13:09.079Z,5.52
2023-05-24T08:14:00.635Z,5.21
2023-05-24T08:14:52.137Z,6.25
2023-05-24T08:15:43.844Z,6.55
2023-05-24T08:16:35.915Z,6.57
2023-05-24T08:17:27.690Z,6.77
2023-05-24T08:18:21.560Z,6.27
2023-05-24T08:19:13.064Z,5.86
2023-05-24T08:20:09.598Z,6.13
2023-05-24T08:21:01.439Z,6.65
2023-05-24T08:21:54.686Z,6.62
2023-05-24T08:22:48.563Z,5.90
2023-05-24T08:23:43.113Z,6.13
2023-05-24T08:24:34.695Z,6.11
2023-05-24T08:25:28.603Z,6.84
2023-05-24T08:26:21.061Z,6.89
2023-05-24T08:27:12.716Z,7.37
2023-05-24T08:28:04.530Z,6.73
2023-05-24T08:28:59.374Z,6.02
2023-05-24T08:29:50.911Z,5.68
2023-05-24T08:30:45.143Z,5.63
2023-05-24T08:31:37.446Z,5.77
2023-05-24T08:32:29.412Z,5.55
2023-05-24T08:33:22.850Z,6.29
2023-05-24T08:34:15.561Z,5.69
2023-05-24T08:35:19.131Z,6.49
2023-05-24T08:36:11.532Z,6.28
2023-05-24T08:37:05.492Z,5.95
2023-05-24T08:37:57.026Z,5.73
2023-05-24T08:38:48.644Z,5.46
2023-05-24T08:39:40.640Z,4.71
2023-05-24T08:40:32.418Z,5.23
2023-05-24T08:41:24.138Z,5.55
2023-05-24T08:42:19.118Z,5.55
2023-05-24T08:43:12.190Z,5.91
2023-05-24T08:44:07.475Z,5.93
2023-05-24T08:45:08.572Z,5.71
2023-05-24T08:46:02.218Z,5.17
2023-05-24T08:46:54.772Z,5.59
2023-05-24T08:47:48.243Z,5.84
2023-05-24T08:48:47.197Z,5.57
2023-05-24T08:49:41.086Z,4.72
2023-05-24T08:50:36.002Z,4.84
2023-05-24T08:51:30.682Z,4.68
2023-05-24T08:52:23.391Z,4.96
2023-05-24T08:53:15.558Z,4.72
2023-05-24T08:54:10.805Z,4.26
2023-05-24T08:55:06.694Z,4.88
2023-05-24T08:55:58.538Z,4.97
2023-05-24T08:56:51.250Z,4.78
2023-05-24T08:57:45.774Z,5.01
2023-05-24T08:58:38.845Z,4.80
2023-05-24T08:59:30.385Z,5.10
2023-05-24T09:00:22.165Z,4.79
2023-05-24T09:01:16.469Z,4.93
2023-05-24T09:02:13.724Z,5.03
2023-05-24T09:03:07.190Z,5.48
2023-05-24T09:04:00.708Z,5.31
2023-05-24T09:04:53.271Z,5.50
2023-05-24T09:05:45.650Z,5.28
2023-05-24T09:06:38.734Z,5.25
2023-05-24T09:07:33.061Z,4.91
2023-05-24T09:08:26.190Z,4.89
2023-05-24T09:09:21.391Z,5.08
2023-05-24T09:10:13.217Z,5.12
2023-05-24T09:11:07.880Z,5.04
2023-05-24T09:12:04.281Z,4.97
2023-05-24T09:13:05.118Z,4.93
2023-05-24T09:13:57.521Z,4.90
2023-05-24T09:14:50.028Z,4.85
2023-05-24T09:15:41.954Z,4.94
2023-05-24T09:16:34.461Z,4.55
2023-05-24T09:17:26.477Z,4.59
2023-05-24T09:18:18.088Z,4.93
2023-05-24T09:19:09.911Z,5.18
2023-05-24T09:20:02.113Z,5.19
2023-05-24T09:20:53.861Z,5.35
2023-05-24T09:21:45.554Z,5.47
2023-05-24T09:22:41.109Z,5.31
2023-05-24T09:23:34.481Z,5.41
2023-05-24T09:24:26.721Z,4.80
2023-05-24T09:25:20.421Z,5.05
2023-05-24T09:26:12.634Z,4.99
2023-05-24T09:27:07.400Z,5.01
2023-05-24T09:28:08.436Z,5.17
2023-05-24T09:29:02.068Z,5.23
2023-05-24T09:29:55.731Z,4.90
2023-05-24T09:30:59.110Z,4.84
2023-05-24T09:31:56.053Z,5.22
2023-05-24T09:33:01.621Z,5.39
2023-05-24T09:33:53.387Z,5.32
2023-05-24T09:34:48.943Z,4.87
2023-05-24T09:35:44.920Z,5.12
2023-05-24T09:36:41.120Z,5.55
2023-05-24T09:37:36.029Z,5.57
2023-05-24T09:38:28.212Z,5.51
2023-05-24T09:39:20.896Z,5.50
2023-05-24T09:40:20.743Z,6.19
2023-05-24T09:41:12.366Z,5.57
2023-05-24T09:42:06.367Z,5.83
2023-05-24T09:43:09.540Z,5.83
2023-05-24T09:44:01.926Z,6.51
2023-05-24T09:45:01.047Z,6.13
2023-05-24T09:45:54.304Z,5.92
2023-05-24T09:46:46.224Z,5.95
2023-05-24T09:47:43.209Z,6.73
2023-05-24T09:48:34.762Z,6.90
2023-05-24T09:49:26.593Z,6.44
2023-05-24T09:50:18.591Z,6.39
2023-05-24T09:51:11.598Z,6.51
2023-05-24T09:52:03.365Z,6.02
2023-05-24T09:52:56.402Z,6.43
2023-05-24T09:53:49.524Z,6.00
2023-05-24T09:54:43.149Z,6.12
2023-05-24T09:55:38.338Z,6.22
2023-05-24T09:56:30.902Z,5.96
2023-05-24T09:57:23.087Z,5.38
2023-05-24T09:58:15.682Z,4.44
2023-05-24T09:59:08.395Z,4.62
2023-05-24T10:00:08.378Z,4.64
2023-05-24T10:01:06.681Z,4.65
2023-05-24T10:02:12.342Z,4.90
2023-05-24T10:03:08.706Z,4.90
2023-05-24T10:04:04.240Z,4.56
2023-05-24T10:05:00.957Z,5.69
2023-05-24T10:05:54.420Z,5.10
2023-05-24T10:06:47.996Z,4.38
2023-05-24T10:07:43.689Z,4.41
2023-05-24T10:08:36.415Z,3.96
2023-05-24T10:09:34.081Z,4.60
2023-05-24T10:10:30.445Z,4.84
2023-05-24T10:11:22.339Z,4.54
2023-05-24T10:12:14.113Z,4.68
2023-05-24T10:13:05.817Z,5.05
2023-05-24T10:13:57.932Z,5.14
2023-05-24T10:14:52.737Z,5.86
2023-05-24T10:15:45.071Z,5.86
2023-05-24T10:16:39.453Z,5.73
2023-05-24T10:17:31.069Z,5.72
2023-05-24T10:18:26.706Z,5.22
2023-05-24T10:19:18.782Z,5.54
2023-05-24T10:20:12.625Z,5.30
2023-05-24T10:21:08.682Z,4.90
2023-05-24T10:22:06.476Z,4.74
2023-05-24T10:23:03.263Z,4.77
2023-05-24T10:23:59.643Z,4.49
2023-05-24T10:24:58.950Z,4.75
2023-05-24T10:26:11.797Z,4.95
2023-05-24T10:27:13.035Z,4.69
2023-05-24T10:28:12.450Z,4.38
2023-05-24T10:29:16.343Z,4.43
2023-05-24T10:30:22.765Z,4.58
2023-05-24T10:31:29.169Z,4.42
2023-05-24T10:32:26.061Z,4.53
2023-05-24T10:33:22.522Z,4.62
2023-05-24T10:34:14.316Z,4.23
2023-05-24T10:35:08.131Z,4.65
2023-05-24T10:36:00.405Z,4.36
2023-05-24T10:36:52.170Z,4.48
2023-05-24T10:37:47.370Z,4.78
2023-05-24T10:38:40.418Z,4.60
2023-05-24T10:39:39.000Z,4.63
2023-05-24T10:40:32.131Z,4.55
2023-05-24T10:41:27.890Z,4.70
2023-05-24T10:42:23.094Z,4.93
2023-05-24T10:43:17.082Z,4.85
2023-05-24T10:44:17.319Z,4.88
2023-05-24T10:45:27.663Z,4.49
2023-05-24T10:46:22.857Z,4.56
2023-05-24T10:47:17.157Z,4.88
2023-05-24T10:48:15.395Z,4.81
2023-05-24T10:49:07.570Z,4.38
2023-05-24T10:50:05.015Z,3.54
2023-05-24T10:50:57.330Z,3.85
2023-05-24T10:51:49.190Z,4.35
2023-05-24T10:52:41.757Z,5.16
2023-05-24T10:53:40.849Z,4.56
2023-05-24T10:54:32.506Z,4.74
2023-05-24T10:55:25.706Z,4.99
2023-05-24T10:56:21.005Z,4.84
2023-05-24T10:57:12.944Z,4.73
2023-05-24T10:58:06.266Z,5.10
2023-05-24T10:58:59.190Z,5.26
2023-05-24T10:59:53.535Z,5.52
2023-05-24T11:00:45.879Z,6.09
2023-05-24T11:01:37.761Z,5.10
2023-05-24T11:02:36.916Z,5.34
2023-05-24T11:03:35.443Z,5.73
2023-05-24T11:04:31.780Z,6.50
2023-05-24T11:05:24.012Z,6.06
2023-05-24T11:06:15.976Z,5.82
2023-05-24T11:07:11.565Z,5.74
2023-05-24T11:08:04.188Z,5.84
2023-05-24T11:09:00.234Z,5.85
2023-05-24T11:09:58.136Z,6.42
2023-05-24T11:10:50.878Z,7.82
2023-05-24T11:11:47.801Z,7.33
2023-05-24T11:12:42.011Z,6.86
2023-05-24T11:13:33.811Z,6.55
2023-05-24T11:14:29.173Z,5.71
2023-05-24T11:15:25.012Z,5.92
2023-05-24T11:16:38.771Z,5.50
2023-05-24T11:17:31.519Z,5.42
2023-05-24T11:18:23.920Z,5.85
2023-05-24T11:19:19.982Z,6.28
2023-05-24T11:20:14.325Z,6.02
2023-05-24T11:21:06.609Z,6.03
2023-05-24T11:21:59.753Z,5.57
2023-05-24T11:22:54.744Z,5.17
2023-05-24T11:23:48.551Z,5.27
2023-05-24T11:24:41.495Z,4.80
2023-05-24T11:25:35.868Z,5.19
2023-05-24T11:26:28.179Z,5.02
2023-05-24T11:27:20.075Z,4.69
2023-05-24T11:28:13.755Z,4.75
2023-05-24T11:29:06.177Z,5.05
2023-05-24T11:29:58.151Z,5.17
2023-05-24T11:30:51.055Z,4.60
2023-05-24T11:32:04.561Z,4.70
2023-05-24T11:32:57.008Z,4.88
2023-05-24T11:33:48.751Z,5.62
2023-05-24T11:34:40.320Z,6.11
2023-05-24T11:35:32.084Z,5.66
2023-05-24T11:36:24.043Z,5.29
2023-05-24T11:37:18.862Z,5.63
2023-05-24T11:38:16.142Z,5.40
2023-05-24T11:39:10.702Z,5.28
2023-05-24T11:40:07.638Z,5.47
2023-05-24T11:41:02.840Z,5.19
2023-05-24T11:41:54.728Z,5.40
2023-05-24T11:42:49.551Z,5.98
2023-05-24T11:43:41.948Z,5.16
2023-05-24T11:44:38.010Z,5.25
2023-05-24T11:45:30.974Z,5.12
2023-05-24T11:46:22.711Z,5.20
2023-05-24T11:47:21.935Z,4.76
2023-05-24T11:48:13.539Z,4.75
2023-05-24T11:49:06.688Z,5.31
2023-05-24T11:49:58.414Z,4.83
2023-05-24T11:50:50.502Z,4.92
2023-05-24T11:51:44.400Z,4.57
2023-05-24T11:52:40.796Z,5.08
2023-05-24T11:53:32.638Z,6.40
2023-05-24T11:54:28.391Z,7.06
2023-05-24T11:55:25.839Z,7.80
2023-05-24T11:56:17.275Z,7.55
2023-05-24T11:57:12.726Z,7.91
2023-05-24T11:58:32.842Z,8.11
2023-05-24T11:59:28.942Z,8.37
2023-05-24T12:00:27.358Z,7.56